sensor_id;sensor_type;location;lat;lon;timestamp;pressure;altitude;pressure_sealevel;temperature;humidity
72721;BME280;60835;50.974;10.322;2023-05-02T00:02:12;97521.78;;;11.57;100.00
72721;BME280;60835;50.974;10.322;2023-05-02T00:04:39;97516.13;;;11.60;100.00
72721;BME280;60835;50.974;10.322;2023-05-02T00:07:05;97513.47;;;11.60;100.00
72721;BME280;60835;50.974;10.322;2023-05-02T00:09:32;97496.41;;;11.48;100.00
72721;BME280;60835;50.974;10.322;2023-05-02T00:11:58;97504.63;;;11.53;100.00
72721;BME280;60835;50.974;10.322;2023-05-02T00:14:25;97506.91;;;11.56;100.00
72721;BME280;60835;50.974;10.322;2023-05-02T00:16:51;97500.22;;;11.60;100.00
72721;BME280;60835;50.974;10.322;2023-05-02T00:19:18;97501.41;;;11.57;100.00
72721;BME280;60835;50.974;10.322;2023-05-02T00:21:47;97489.72;;;11.52;100.00
72721;BME280;60835;50.974;10.322;2023-05-02T00:24:16;97488.00;;;11.59;100.00
72721;BME280;60835;50.974;10.322;2023-05-02T00:26:42;97498.88;;;11.64;100.00
72721;BME280;60835;50.974;10.322;2023-05-02T00:29:09;97506.97;;;11.62;100.00
72721;BME280;60835;50.974;10.322;2023-05-02T00:31:35;97492.38;;;11.52;100.00
72721;BME280;60835;50.974;10.322;2023-05-02T00:34:02;97472.28;;;11.43;100.00
72721;BME280;60835;50.974;10.322;2023-05-02T00:36:28;97477.22;;;11.46;100.00
72721;BME280;60835;50.974;10.322;2023-05-02T00:38:55;97471.09;;;11.45;100.00
72721;BME280;60835;50.974;10.322;2023-05-02T00:41:21;97462.13;;;11.46;100.00
72721;BME280;60835;50.974;10.322;2023-05-02T00:43:47;97464.50;;;11.41;100.00
72721;BME280;60835;50.974;10.322;2023-05-02T00:46:14;97455.47;;;11.36;100.00
72721;BME280;60835;50.974;10.322;2023-05-02T00:48:40;97451.09;;;11.43;100.00
72721;BME280;60835;50.974;10.322;2023-05-02T00:51:07;97444.88;;;11.36;100.00
72721;BME280;60835;50.974;10.322;2023-05-02T00:53:37;97456.13;;;11.38;100.00
72721;BME280;60835;50.974;10.322;2023-05-02T00:56:04;97460.41;;;11.39;100.00
72721;BME280;60835;50.974;10.322;2023-05-02T00:58:30;97470.63;;;11.42;100.00
72721;BME280;60835;50.974;10.322;2023-05-02T01:09:21;97456.75;;;11.40;100.00
72721;BME280;60835;50.974;10.322;2023-05-02T01:12:01;97479.88;;;11.46;100.00
72721;BME280;60835;50.974;10.322;2023-05-02T01:14:31;97482.34;;;11.33;100.00
72721;BME280;60835;50.974;10.322;2023-05-02T01:17:00;97459.22;;;11.41;100.00
72721;BME280;60835;50.974;10.322;2023-05-02T01:19:35;97479.41;;;11.42;100.00
72721;BME280;60835;50.974;10.322;2023-05-02T01:22:04;97487.81;;;11.46;100.00
72721;BME280;60835;50.974;10.322;2023-05-02T01:24:31;97483.53;;;11.45;100.00
72721;BME280;60835;50.974;10.322;2023-05-02T01:27:13;97398.16;;;10.84;100.00
72721;BME280;60835;50.974;10.322;2023-05-02T01:29:41;97497.13;;;11.42;100.00
72721;BME280;60835;50.974;10.322;2023-05-02T01:32:08;97490.91;;;11.35;100.00
72721;BME280;60835;50.974;10.322;2023-05-02T01:34:37;97483.06;;;11.27;100.00
72721;BME280;60835;50.974;10.322;2023-05-02T01:37:05;97480.88;;;11.30;100.00
72721;BME280;60835;50.974;10.322;2023-05-02T01:39:35;97469.00;;;11.12;100.00
72721;BME280;60835;50.974;10.322;2023-05-02T01:42:03;97458.22;;;11.13;100.00
72721;BME280;60835;50.974;10.322;2023-05-02T01:44:30;97460.38;;;11.10;100.00
72721;BME280;60835;50.974;10.322;2023-05-02T01:46:58;97464.88;;;11.09;100.00
72721;BME280;60835;50.974;10.322;2023-05-02T01:49:27;97459.13;;;11.06;100.00
72721;BME280;60835;50.974;10.322;2023-05-02T01:51:54;97448.53;;;11.06;100.00
72721;BME280;60835;50.974;10.322;2023-05-02T01:54:22;97443.25;;;11.06;100.00
72721;BME280;60835;50.974;10.322;2023-05-02T01:56:49;97442.34;;;10.98;100.00
72721;BME280;60835;50.974;10.322;2023-05-02T01:59:17;97437.94;;;11.06;100.00
72721;BME280;60835;50.974;10.322;2023-05-02T02:01:44;97429.72;;;11.00;100.00
72721;BME280;60835;50.974;10.322;2023-05-02T02:04:11;97434.09;;;10.93;100.00
72721;BME280;60835;50.974;10.322;2023-05-02T02:06:39;97428.34;;;10.90;100.00
72721;BME280;60835;50.974;10.322;2023-05-02T02:09:09;97350.66;;;10.39;100.00
72721;BME280;60835;50.974;10.322;2023-05-02T02:11:49;97432.38;;;11.00;100.00
72721;BME280;60835;50.974;10.322;2023-05-02T02:14:18;97428.00;;;11.08;100.00
72721;BME280;60835;50.974;10.322;2023-05-02T02:16:46;97433.13;;;11.09;100.00
72721;BME280;60835;50.974;10.322;2023-05-02T02:19:13;97435.47;;;11.04;100.00
72721;BME280;60835;50.974;10.322;2023-05-02T02:21:43;97441.22;;;11.08;100.00
72721;BME280;60835;50.974;10.322;2023-05-02T02:24:12;97447.53;;;11.07;100.00
72721;BME280;60835;50.974;10.322;2023-05-02T02:26:40;97444.44;;;11.03;100.00
72721;BME280;60835;50.974;10.322;2023-05-02T02:29:07;97448.81;;;11.11;100.00
72721;BME280;60835;50.974;10.322;2023-05-02T02:31:34;97449.44;;;11.13;100.00
72721;BME280;60835;50.974;10.322;2023-05-02T02:34:01;97449.44;;;11.13;100.00
72721;BME280;60835;50.974;10.322;2023-05-02T02:36:30;97445.41;;;10.87;100.00
72721;BME280;60835;50.974;10.322;2023-05-02T02:41:35;97432.47;;;10.92;100.00
72721;BME280;60835;50.974;10.322;2023-05-02T02:44:09;97438.03;;;10.97;100.00
72721;BME280;60835;50.974;10.322;2023-05-02T02:51:38;97431.91;;;10.82;100.00
72721;BME280;60835;50.974;10.322;2023-05-02T02:57:03;97433.91;;;10.95;100.00
72721;BME280;60835;50.974;10.322;2023-05-02T02:59:32;97440.13;;;10.87;100.00
72721;BME280;60835;50.974;10.322;2023-05-02T03:04:31;97447.50;;;10.92;100.00
72721;BME280;60835;50.974;10.322;2023-05-02T03:06:59;97446.13;;;10.81;100.00
72721;BME280;60835;50.974;10.322;2023-05-02T03:09:26;97461.72;;;10.76;100.00
72721;BME280;60835;50.974;10.322;2023-05-02T03:11:55;97456.91;;;10.80;100.00
72721;BME280;60835;50.974;10.322;2023-05-02T03:14:22;97457.41;;;10.75;100.00
72721;BME280;60835;50.974;10.322;2023-05-02T03:16:49;97452.03;;;10.69;100.00
72721;BME280;60835;50.974;10.322;2023-05-02T03:19:15;97455.56;;;10.61;100.00
72721;BME280;60835;50.974;10.322;2023-05-02T03:21:41;97453.09;;;10.60;100.00
72721;BME280;60835;50.974;10.322;2023-05-02T03:24:08;97465.13;;;10.62;100.00
72721;BME280;60835;50.974;10.322;2023-05-02T03:26:35;97452.84;;;10.69;100.00
72721;BME280;60835;50.974;10.322;2023-05-02T03:29:01;97459.25;;;10.52;100.00
72721;BME280;60835;50.974;10.322;2023-05-02T03:31:28;97451.97;;;10.54;100.00
72721;BME280;60835;50.974;10.322;2023-05-02T03:33:55;97444.50;;;10.58;100.00
72721;BME280;60835;50.974;10.322;2023-05-02T03:36:22;97447.34;;;10.56;100.00
72721;BME280;60835;50.974;10.322;2023-05-02T03:38:50;97452.25;;;10.59;100.00
72721;BME280;60835;50.974;10.322;2023-05-02T03:41:17;97451.69;;;10.49;100.00
72721;BME280;60835;50.974;10.322;2023-05-02T03:43:43;97457.72;;;10.43;100.00
72721;BME280;60835;50.974;10.322;2023-05-02T03:46:10;97470.25;;;10.41;100.00
72721;BME280;60835;50.974;10.322;2023-05-02T03:48:37;97473.19;;;10.46;100.00
72721;BME280;60835;50.974;10.322;2023-05-02T03:51:04;97489.94;;;10.38;100.00
72721;BME280;60835;50.974;10.322;2023-05-02T03:53:30;97481.31;;;10.45;100.00
72721;BME280;60835;50.974;10.322;2023-05-02T03:55:57;97484.25;;;10.50;100.00
72721;BME280;60835;50.974;10.322;2023-05-02T03:58:24;97493.75;;;10.36;100.00
72721;BME280;60835;50.974;10.322;2023-05-02T04:00:50;97496.94;;;10.31;100.00
72721;BME280;60835;50.974;10.322;2023-05-02T04:03:21;97491.16;;;10.28;100.00
72721;BME280;60835;50.974;10.322;2023-05-02T04:05:48;97502.09;;;10.25;100.00
72721;BME280;60835;50.974;10.322;2023-05-02T04:08:14;97505.06;;;10.22;100.00
72721;BME280;60835;50.974;10.322;2023-05-02T04:10:40;97507.50;;;10.31;100.00
72721;BME280;60835;50.974;10.322;2023-05-02T04:13:07;97520.19;;;10.36;100.00
72721;BME280;60835;50.974;10.322;2023-05-02T04:15:33;97408.31;;;9.59;100.00
72721;BME280;60835;50.974;10.322;2023-05-02T04:18:01;97516.34;;;10.16;100.00
72721;BME280;60835;50.974;10.322;2023-05-02T04:20:28;97417.13;;;9.44;100.00
72721;BME280;60835;50.974;10.322;2023-05-02T04:22:54;97541.66;;;10.02;100.00
72721;BME280;60835;50.974;10.322;2023-05-02T04:25:21;97546.72;;;10.12;100.00
72721;BME280;60835;50.974;10.322;2023-05-02T04:27:47;97551.72;;;10.07;100.00
72721;BME280;60835;50.974;10.322;2023-05-02T04:30:14;97559.72;;;9.82;100.00
72721;BME280;60835;50.974;10.322;2023-05-02T04:32:40;97561.72;;;9.80;100.00
72721;BME280;60835;50.974;10.322;2023-05-02T04:35:07;97573.47;;;9.78;100.00
72721;BME280;60835;50.974;10.322;2023-05-02T04:37:35;97578.63;;;9.71;100.00
72721;BME280;60835;50.974;10.322;2023-05-02T04:40:01;97577.94;;;9.69;100.00
72721;BME280;60835;50.974;10.322;2023-05-02T04:42:30;97575.47;;;9.76;100.00
72721;BME280;60835;50.974;10.322;2023-05-02T04:44:56;97592.16;;;9.60;100.00
72721;BME280;60835;50.974;10.322;2023-05-02T04:47:23;97598.09;;;9.70;100.00
72721;BME280;60835;50.974;10.322;2023-05-02T04:49:49;97606.03;;;9.62;100.00
72721;BME280;60835;50.974;10.322;2023-05-02T04:52:16;97613.63;;;9.57;100.00
72721;BME280;60835;50.974;10.322;2023-05-02T04:54:44;97603.41;;;9.54;100.00
72721;BME280;60835;50.974;10.322;2023-05-02T04:57:13;97621.06;;;9.46;100.00
72721;BME280;60835;50.974;10.322;2023-05-02T04:59:39;97624.84;;;9.51;100.00
72721;BME280;60835;50.974;10.322;2023-05-02T05:02:05;97633.06;;;9.64;100.00
72721;BME280;60835;50.974;10.322;2023-05-02T05:04:33;97631.59;;;9.62;100.00
72721;BME280;60835;50.974;10.322;2023-05-02T05:07:00;97628.81;;;9.63;100.00
72721;BME280;60835;50.974;10.322;2023-05-02T05:09:26;97659.78;;;9.86;100.00
72721;BME280;60835;50.974;10.322;2023-05-02T05:11:53;97636.72;;;9.71;100.00
72721;BME280;60835;50.974;10.322;2023-05-02T05:14:19;97633.03;;;9.89;100.00
72721;BME280;60835;50.974;10.322;2023-05-02T05:16:46;97639.41;;;10.18;100.00
72721;BME280;60835;50.974;10.322;2023-05-02T05:19:13;97644.78;;;10.33;100.00
72721;BME280;60835;50.974;10.322;2023-05-02T05:21:39;97645.75;;;10.48;100.00
72721;BME280;60835;50.974;10.322;2023-05-02T05:24:07;97641.69;;;10.60;100.00
72721;BME280;60835;50.974;10.322;2023-05-02T05:26:34;97650.13;;;10.64;100.00
72721;BME280;60835;50.974;10.322;2023-05-02T05:29:00;97650.47;;;10.83;100.00
72721;BME280;60835;50.974;10.322;2023-05-02T05:31:28;97663.47;;;10.70;100.00
72721;BME280;60835;50.974;10.322;2023-05-02T05:33:54;97659.25;;;10.84;100.00
72721;BME280;60835;50.974;10.322;2023-05-02T05:36:21;97656.38;;;10.93;100.00
72721;BME280;60835;50.974;10.322;2023-05-02T05:38:49;97650.63;;;11.13;100.00
72721;BME280;60835;50.974;10.322;2023-05-02T05:41:16;97659.16;;;11.23;100.00
72721;BME280;60835;50.974;10.322;2023-05-02T05:43:42;97656.16;;;11.26;100.00
72721;BME280;60835;50.974;10.322;2023-05-02T05:46:09;97642.16;;;11.17;100.00
72721;BME280;60835;50.974;10.322;2023-05-02T05:48:36;97656.63;;;11.07;100.00
72721;BME280;60835;50.974;10.322;2023-05-02T05:51:05;97652.63;;;11.11;100.00
72721;BME280;60835;50.974;10.322;2023-05-02T05:53:32;97644.00;;;11.54;100.00
72721;BME280;60835;50.974;10.322;2023-05-02T05:56:06;97640.84;;;11.73;100.00
72721;BME280;60835;50.974;10.322;2023-05-02T05:58:33;97646.59;;;11.62;100.00
72721;BME280;60835;50.974;10.322;2023-05-02T06:01:00;97635.84;;;12.37;100.00
72721;BME280;60835;50.974;10.322;2023-05-02T06:03:27;97666.59;;;12.46;100.00
72721;BME280;60835;50.974;10.322;2023-05-02T06:05:54;97674.19;;;12.49;100.00
72721;BME280;60835;50.974;10.322;2023-05-02T06:08:20;97684.78;;;12.34;100.00
72721;BME280;60835;50.974;10.322;2023-05-02T06:10:47;97680.13;;;12.21;100.00
72721;BME280;60835;50.974;10.322;2023-05-02T06:13:13;97681.41;;;12.55;100.00
72721;BME280;60835;50.974;10.322;2023-05-02T06:15:39;97696.09;;;12.72;100.00
72721;BME280;60835;50.974;10.322;2023-05-02T06:18:06;97706.16;;;12.76;100.00
72721;BME280;60835;50.974;10.322;2023-05-02T06:20:34;97716.97;;;12.75;100.00
72721;BME280;60835;50.974;10.322;2023-05-02T06:23:00;97715.03;;;12.69;100.00
72721;BME280;60835;50.974;10.322;2023-05-02T06:25:27;97636.44;;;12.17;100.00
72721;BME280;60835;50.974;10.322;2023-05-02T06:27:55;97719.16;;;12.71;100.00
72721;BME280;60835;50.974;10.322;2023-05-02T06:30:22;97724.72;;;12.91;100.00
72721;BME280;60835;50.974;10.322;2023-05-02T06:32:48;97735.06;;;12.86;100.00
72721;BME280;60835;50.974;10.322;2023-05-02T06:35:15;97741.47;;;12.92;100.00
72721;BME280;60835;50.974;10.322;2023-05-02T06:37:41;97746.44;;;12.65;100.00
72721;BME280;60835;50.974;10.322;2023-05-02T06:40:08;97736.06;;;12.85;100.00
72721;BME280;60835;50.974;10.322;2023-05-02T06:42:35;97752.91;;;12.92;100.00
72721;BME280;60835;50.974;10.322;2023-05-02T06:45:02;97755.88;;;12.68;100.00
72721;BME280;60835;50.974;10.322;2023-05-02T06:47:28;97742.69;;;12.89;100.00
72721;BME280;60835;50.974;10.322;2023-05-02T06:49:55;97764.06;;;13.02;100.00
72721;BME280;60835;50.974;10.322;2023-05-02T06:52:21;97770.75;;;12.98;100.00
72721;BME280;60835;50.974;10.322;2023-05-02T06:54:48;97762.59;;;13.14;100.00
72721;BME280;60835;50.974;10.322;2023-05-02T06:57:14;97777.09;;;13.12;100.00
72721;BME280;60835;50.974;10.322;2023-05-02T06:59:41;97784.22;;;13.11;100.00
72721;BME280;60835;50.974;10.322;2023-05-02T07:02:08;97787.59;;;13.20;100.00
72721;BME280;60835;50.974;10.322;2023-05-02T07:04:34;97802.59;;;13.27;100.00
72721;BME280;60835;50.974;10.322;2023-05-02T07:07:01;97804.78;;;13.24;100.00
72721;BME280;60835;50.974;10.322;2023-05-02T07:09:29;97802.81;;;12.97;100.00
72721;BME280;60835;50.974;10.322;2023-05-02T07:11:55;97787.91;;;12.81;100.00
72721;BME280;60835;50.974;10.322;2023-05-02T07:14:22;97784.38;;;12.95;100.00
72721;BME280;60835;50.974;10.322;2023-05-02T07:16:48;97785.19;;;13.25;100.00
72721;BME280;60835;50.974;10.322;2023-05-02T07:19:15;97810.88;;;13.54;100.00
72721;BME280;60835;50.974;10.322;2023-05-02T07:21:41;97839.13;;;13.40;100.00
72721;BME280;60835;50.974;10.322;2023-05-02T07:24:08;97823.84;;;13.42;100.00
72721;BME280;60835;50.974;10.322;2023-05-02T07:26:34;97820.97;;;13.43;100.00
72721;BME280;60835;50.974;10.322;2023-05-02T07:29:01;97831.81;;;13.42;100.00
72721;BME280;60835;50.974;10.322;2023-05-02T07:31:28;97835.16;;;13.15;100.00
72721;BME280;60835;50.974;10.322;2023-05-02T07:33:55;97806.75;;;13.15;100.00
72721;BME280;60835;50.974;10.322;2023-05-02T07:36:21;97817.38;;;13.15;100.00
72721;BME280;60835;50.974;10.322;2023-05-02T07:38:48;97817.31;;;13.45;100.00
72721;BME280;60835;50.974;10.322;2023-05-02T07:41:14;97840.78;;;13.41;100.00
72721;BME280;60835;50.974;10.322;2023-05-02T07:43:41;97835.00;;;13.37;100.00
72721;BME280;60835;50.974;10.322;2023-05-02T07:46:08;97866.03;;;13.52;100.00
72721;BME280;60835;50.974;10.322;2023-05-02T07:48:34;97875.25;;;13.70;100.00
72721;BME280;60835;50.974;10.322;2023-05-02T07:51:07;97897.16;;;14.08;100.00
72721;BME280;60835;50.974;10.322;2023-05-02T07:53:34;97953.03;;;14.29;100.00
72721;BME280;60835;50.974;10.322;2023-05-02T07:56:04;97977.41;;;14.69;100.00
72721;BME280;60835;50.974;10.322;2023-05-02T07:58:32;98079.41;;;15.11;100.00
72721;BME280;60835;50.974;10.322;2023-05-02T08:00:58;98151.88;;;15.21;100.00
72721;BME280;60835;50.974;10.322;2023-05-02T08:03:25;98195.44;;;15.14;100.00
72721;BME280;60835;50.974;10.322;2023-05-02T08:05:53;98189.72;;;14.81;100.00
72721;BME280;60835;50.974;10.322;2023-05-02T08:08:19;98296.75;;;15.35;100.00
72721;BME280;60835;50.974;10.322;2023-05-02T08:10:46;98431.28;;;15.83;100.00
72721;BME280;60835;50.974;10.322;2023-05-02T08:13:12;98564.56;;;15.76;100.00
72721;BME280;60835;50.974;10.322;2023-05-02T08:15:39;98887.34;;;16.67;100.00
72721;BME280;60835;50.974;10.322;2023-05-02T08:18:05;99086.53;;;17.30;100.00
72721;BME280;60835;50.974;10.322;2023-05-02T08:20:32;99186.19;;;16.78;100.00
72721;BME280;60835;50.974;10.322;2023-05-02T08:22:58;99108.28;;;15.73;100.00
72721;BME280;60835;50.974;10.322;2023-05-02T08:25:25;99134.84;;;16.13;100.00
72721;BME280;60835;50.974;10.322;2023-05-02T08:27:52;99102.84;;;15.50;100.00
72721;BME280;60835;50.974;10.322;2023-05-02T08:30:18;99058.16;;;15.28;100.00
72721;BME280;60835;50.974;10.322;2023-05-02T08:32:45;99022.72;;;15.11;100.00
72721;BME280;60835;50.974;10.322;2023-05-02T08:35:12;99018.25;;;14.80;100.00
72721;BME280;60835;50.974;10.322;2023-05-02T08:37:39;98974.47;;;14.82;100.00
72721;BME280;60835;50.974;10.322;2023-05-02T08:40:06;98725.56;;;14.85;100.00
72721;BME280;60835;50.974;10.322;2023-05-02T08:42:36;98300.53;;;14.38;100.00
72721;BME280;60835;50.974;10.322;2023-05-02T08:45:03;97964.16;;;14.18;100.00
72721;BME280;60835;50.974;10.322;2023-05-02T08:47:29;97935.41;;;14.28;100.00
72721;BME280;60835;50.974;10.322;2023-05-02T08:49:57;97904.94;;;14.31;100.00
72721;BME280;60835;50.974;10.322;2023-05-02T08:52:25;97929.75;;;14.52;100.00
72721;BME280;60835;50.974;10.322;2023-05-02T08:54:52;97953.06;;;14.50;100.00
72721;BME280;60835;50.974;10.322;2023-05-02T08:57:19;97993.59;;;14.95;100.00
72721;BME280;60835;50.974;10.322;2023-05-02T08:59:45;98078.22;;;15.97;100.00
72721;BME280;60835;50.974;10.322;2023-05-02T09:04:46;98893.31;;;18.29;100.00
72721;BME280;60835;50.974;10.322;2023-05-02T09:07:16;99262.59;;;20.04;100.00
72721;BME280;60835;50.974;10.322;2023-05-02T09:09:42;99368.69;;;18.18;100.00
72721;BME280;60835;50.974;10.322;2023-05-02T09:12:09;99404.66;;;19.78;100.00
72721;BME280;60835;50.974;10.322;2023-05-02T09:14:35;99427.47;;;18.94;100.00
72721;BME280;60835;50.974;10.322;2023-05-02T09:17:02;99423.25;;;17.94;100.00
72721;BME280;60835;50.974;10.322;2023-05-02T09:19:29;99416.72;;;17.66;100.00
72721;BME280;60835;50.974;10.322;2023-05-02T09:21:59;99351.25;;;16.44;100.00
72721;BME280;60835;50.974;10.322;2023-05-02T09:24:28;99265.81;;;16.36;100.00
72721;BME280;60835;50.974;10.322;2023-05-02T09:26:59;99251.66;;;16.11;100.00
72721;BME280;60835;50.974;10.322;2023-05-02T09:29:26;99222.31;;;16.03;100.00
72721;BME280;60835;50.974;10.322;2023-05-02T09:31:55;99240.00;;;16.04;100.00
72721;BME280;60835;50.974;10.322;2023-05-02T09:34:22;99259.88;;;15.94;100.00
72721;BME280;60835;50.974;10.322;2023-05-02T09:36:51;99267.69;;;16.03;100.00
72721;BME280;60835;50.974;10.322;2023-05-02T09:39:21;99298.22;;;16.01;100.00
72721;BME280;60835;50.974;10.322;2023-05-02T09:41:51;99312.53;;;16.32;100.00
72721;BME280;60835;50.974;10.322;2023-05-02T09:44:18;99350.56;;;16.66;100.00
72721;BME280;60835;50.974;10.322;2023-05-02T09:46:49;99374.09;;;16.63;100.00
72721;BME280;60835;50.974;10.322;2023-05-02T09:49:16;99446.16;;;18.88;100.00
72721;BME280;60835;50.974;10.322;2023-05-02T09:51:46;99378.63;;;19.42;100.00
72721;BME280;60835;50.974;10.322;2023-05-02T09:54:13;99496.72;;;21.07;100.00
72721;BME280;60835;50.974;10.322;2023-05-02T09:59:19;99512.59;;;21.23;100.00
72721;BME280;60835;50.974;10.322;2023-05-02T10:01:45;99517.34;;;20.79;100.00
72721;BME280;60835;50.974;10.322;2023-05-02T10:04:20;99511.38;;;21.32;100.00
72721;BME280;60835;50.974;10.322;2023-05-02T10:06:47;99523.44;;;22.91;100.00
72721;BME280;60835;50.974;10.322;2023-05-02T10:09:16;99526.13;;;23.18;100.00
72721;BME280;60835;50.974;10.322;2023-05-02T10:11:50;99515.28;;;23.57;100.00
72721;BME280;60835;50.974;10.322;2023-05-02T10:14:17;99524.06;;;23.13;100.00
72721;BME280;60835;50.974;10.322;2023-05-02T10:16:52;99526.22;;;21.21;100.00
72721;BME280;60835;50.974;10.322;2023-05-02T10:19:24;99523.13;;;19.31;100.00
72721;BME280;60835;50.974;10.322;2023-05-02T10:21:52;99522.16;;;19.47;100.00
72721;BME280;60835;50.974;10.322;2023-05-02T10:24:18;99532.31;;;18.62;100.00
72721;BME280;60835;50.974;10.322;2023-05-02T10:26:46;99534.63;;;18.65;100.00
72721;BME280;60835;50.974;10.322;2023-05-02T10:29:13;99531.09;;;18.64;100.00
72721;BME280;60835;50.974;10.322;2023-05-02T10:31:40;99535.75;;;18.17;100.00
72721;BME280;60835;50.974;10.322;2023-05-02T10:34:10;99536.16;;;17.67;100.00
72721;BME280;60835;50.974;10.322;2023-05-02T10:36:36;99540.84;;;17.49;100.00
72721;BME280;60835;50.974;10.322;2023-05-02T10:39:03;99533.44;;;17.75;100.00
72721;BME280;60835;50.974;10.322;2023-05-02T10:41:30;99524.19;;;17.31;100.00
72721;BME280;60835;50.974;10.322;2023-05-02T10:43:58;99516.84;;;17.17;100.00
72721;BME280;60835;50.974;10.322;2023-05-02T10:46:32;99495.00;;;16.97;100.00
72721;BME280;60835;50.974;10.322;2023-05-02T10:51:34;99484.81;;;16.84;100.00
72721;BME280;60835;50.974;10.322;2023-05-02T11:02:00;99505.50;;;17.15;100.00
72721;BME280;60835;50.974;10.322;2023-05-02T11:07:16;99528.75;;;17.77;100.00
72721;BME280;60835;50.974;10.322;2023-05-02T11:09:42;99541.41;;;18.22;100.00
72721;BME280;60835;50.974;10.322;2023-05-02T11:12:09;99556.03;;;17.73;100.00
72721;BME280;60835;50.974;10.322;2023-05-02T11:17:06;99555.25;;;17.40;100.00
72721;BME280;60835;50.974;10.322;2023-05-02T11:24:46;99570.06;;;18.75;100.00
72721;BME280;60835;50.974;10.322;2023-05-02T11:32:21;99582.44;;;20.17;100.00
72721;BME280;60835;50.974;10.322;2023-05-02T11:34:48;99588.03;;;20.51;100.00
72721;BME280;60835;50.974;10.322;2023-05-02T11:37:19;99590.97;;;21.41;100.00
72721;BME280;60835;50.974;10.322;2023-05-02T11:39:46;99594.25;;;23.20;100.00
72721;BME280;60835;50.974;10.322;2023-05-02T11:42:28;99586.69;;;22.69;100.00
72721;BME280;60835;50.974;10.322;2023-05-02T11:44:59;99590.09;;;23.17;100.00
72721;BME280;60835;50.974;10.322;2023-05-02T11:47:26;99495.47;;;24.65;100.00
72721;BME280;60835;50.974;10.322;2023-05-02T11:49:55;99514.50;;;23.17;100.00
72721;BME280;60835;50.974;10.322;2023-05-02T11:52:22;99603.19;;;23.27;100.00
72721;BME280;60835;50.974;10.322;2023-05-02T11:54:49;99591.31;;;23.80;100.00
72721;BME280;60835;50.974;10.322;2023-05-02T11:57:18;99602.13;;;23.80;100.00
72721;BME280;60835;50.974;10.322;2023-05-02T11:59:51;99615.59;;;22.88;100.00
72721;BME280;60835;50.974;10.322;2023-05-02T12:02:18;99602.41;;;22.53;100.00
72721;BME280;60835;50.974;10.322;2023-05-02T12:04:46;99524.66;;;21.68;100.00
72721;BME280;60835;50.974;10.322;2023-05-02T12:07:17;99612.09;;;20.09;100.00
72721;BME280;60835;50.974;10.322;2023-05-02T12:09:50;99612.88;;;20.53;100.00
72721;BME280;60835;50.974;10.322;2023-05-02T12:12:20;99617.78;;;20.50;100.00
72721;BME280;60835;50.974;10.322;2023-05-02T12:14:47;99620.88;;;20.32;100.00
72721;BME280;60835;50.974;10.322;2023-05-02T12:17:13;99619.03;;;19.14;100.00
72721;BME280;60835;50.974;10.322;2023-05-02T12:19:40;99602.03;;;18.54;100.00
72721;BME280;60835;50.974;10.322;2023-05-02T12:22:06;99603.97;;;17.98;100.00
72721;BME280;60835;50.974;10.322;2023-05-02T12:24:34;99597.72;;;17.59;100.00
72721;BME280;60835;50.974;10.322;2023-05-02T12:27:11;99598.97;;;17.87;100.00
72721;BME280;60835;50.974;10.322;2023-05-02T12:29:47;99595.34;;;17.64;100.00
72721;BME280;60835;50.974;10.322;2023-05-02T12:32:15;99610.06;;;17.76;100.00
72721;BME280;60835;50.974;10.322;2023-05-02T12:34:53;99608.22;;;17.69;100.00
72721;BME280;60835;50.974;10.322;2023-05-02T12:37:23;99610.72;;;17.78;100.00
72721;BME280;60835;50.974;10.322;2023-05-02T12:39:50;99520.56;;;16.99;100.00
72721;BME280;60835;50.974;10.322;2023-05-02T12:42:18;99606.25;;;16.90;100.00
72721;BME280;60835;50.974;10.322;2023-05-02T12:44:46;99604.75;;;17.28;100.00
72721;BME280;60835;50.974;10.322;2023-05-02T12:47:13;99599.66;;;16.44;100.00
72721;BME280;60835;50.974;10.322;2023-05-02T12:49:50;99574.28;;;16.48;100.00
72721;BME280;60835;50.974;10.322;2023-05-02T12:52:20;99588.84;;;16.04;100.00
72721;BME280;60835;50.974;10.322;2023-05-02T12:54:47;99579.66;;;15.64;100.00
72721;BME280;60835;50.974;10.322;2023-05-02T12:57:21;99597.59;;;16.22;100.00
72721;BME280;60835;50.974;10.322;2023-05-02T12:59:50;99593.53;;;16.18;100.00
72721;BME280;60835;50.974;10.322;2023-05-02T13:02:16;99492.03;;;15.52;100.00
72721;BME280;60835;50.974;10.322;2023-05-02T13:04:43;99571.16;;;15.69;100.00
72721;BME280;60835;50.974;10.322;2023-05-02T13:07:09;99578.44;;;15.93;100.00
72721;BME280;60835;50.974;10.322;2023-05-02T13:09:36;99581.31;;;15.65;100.00
72721;BME280;60835;50.974;10.322;2023-05-02T13:12:03;99591.63;;;15.17;100.00
72721;BME280;60835;50.974;10.322;2023-05-02T13:14:29;99578.47;;;15.15;100.00
72721;BME280;60835;50.974;10.322;2023-05-02T13:16:56;99584.59;;;14.90;100.00
72721;BME280;60835;50.974;10.322;2023-05-02T13:19:26;99564.22;;;15.07;100.00
72721;BME280;60835;50.974;10.322;2023-05-02T13:21:56;99570.84;;;15.20;100.00
72721;BME280;60835;50.974;10.322;2023-05-02T13:24:23;99580.34;;;15.23;100.00
72721;BME280;60835;50.974;10.322;2023-05-02T13:26:50;99567.03;;;14.80;100.00
72721;BME280;60835;50.974;10.322;2023-05-02T13:29:16;99559.13;;;14.96;100.00
72721;BME280;60835;50.974;10.322;2023-05-02T13:31:43;99546.22;;;14.83;100.00
72721;BME280;60835;50.974;10.322;2023-05-02T13:34:09;99551.16;;;14.96;100.00
72721;BME280;60835;50.974;10.322;2023-05-02T13:36:36;99572.16;;;14.99;100.00